Time;durP1;ratioP1;P1;durP2;ratioP2;P2;SDS_P1;SDS_P2;PMS_P1;PMS_P2;Temp;Humidity;BMP_temperature;BMP_pressure;BME280_temperature;BME280_humidity;BME280_pressure;Samples;Min_cycle;Max_cycle;Signal;HPM_P1;HPM_P2
2022/11/12 00:01:25;;;;;;;10.30;5.47;;;;;;;9.60;80.85;99658.53;6247878;23;20023;-89
2022/11/12 00:04:09;;;;;;;10.80;5.32;;;;;;;9.49;80.70;99625.13;6246665;23;20016;-91
2022/11/12 00:06:54;;;;;;;10.75;4.70;;;;;;;9.64;80.53;99637.75;6223773;23;20061;-92
2022/11/12 00:09:38;;;;;;;13.40;5.50;;;;;;;9.53;80.35;99617.97;6244559;23;20027;-89
2022/11/12 00:12:23;;;;;;;7.78;4.65;;;;;;;9.48;80.61;99618.06;6244834;23;20024;-88
2022/11/12 00:15:08;;;;;;;10.93;5.45;;;;;;;9.47;80.36;99588.34;6245976;23;20014;-90
2022/11/12 00:17:52;;;;;;;8.57;4.85;;;;;;;9.65;80.50;99601.94;6246249;23;20023;-83
2022/11/12 00:20:37;;;;;;;7.90;4.57;;;;;;;9.43;80.74;99546.41;6246035;23;20020;-85
2022/11/12 00:23:21;;;;;;;12.90;5.15;;;;;;;9.57;81.42;99575.34;6244936;23;20016;-88
2022/11/12 00:26:06;;;;;;;7.88;4.55;;;;;;;9.23;82.37;99529.25;6244926;23;20103;-89
2022/11/12 00:28:54;;;;;;;11.10;5.70;;;;;;;9.27;82.63;99532.19;6244190;23;20086;-90
2022/11/12 00:31:38;;;;;;;9.57;5.32;;;;;;;9.30;82.74;99551.50;6246043;23;20454;-90
2022/11/12 00:34:23;;;;;;;14.18;5.53;;;;;;;9.51;83.10;99590.19;6245025;23;20462;-87
2022/11/12 00:37:07;;;;;;;11.18;5.43;;;;;;;9.49;83.30;99583.41;6245530;23;20026;-90
2022/11/12 00:39:52;;;;;;;9.77;5.10;;;;;;;9.18;83.59;99548.44;6244906;23;20424;-87
2022/11/12 00:42:36;;;;;;;11.82;5.45;;;;;;;9.28;83.77;99559.19;6245254;23;20022;-88
2022/11/12 00:45:22;;;;;;;8.35;4.90;;;;;;;9.43;83.84;99588.13;6245584;23;20016;-86
2022/11/12 00:48:06;;;;;;;10.77;5.05;;;;;;;9.13;84.12;99546.59;6245568;23;20027;-85
2022/11/12 00:50:59;;;;;;;10.43;5.75;;;;;;;9.40;84.02;99577.81;6256358;23;20142;-90
2022/11/12 00:53:47;;;;;;;10.27;5.40;;;;;;;9.32;83.60;99570.31;6245835;23;20023;-91
2022/11/12 00:59:38;;;;;;;11.43;5.25;;;;;;;9.51;83.54;99605.75;6182304;23;20083;-83
2022/11/12 01:05:10;;;;;;;10.35;5.95;;;;;;;9.59;83.26;99605.88;6182835;23;20027;-90
2022/11/12 01:07:54;;;;;;;10.00;5.47;;;;;;;9.25;83.54;99556.25;6183070;23;20017;-84
2022/11/12 01:10:38;;;;;;;7.70;4.72;;;;;;;9.51;83.44;99597.56;6213902;23;20078;-89
2022/11/12 01:13:23;;;;;;;8.23;4.40;;;;;;;9.49;83.62;99599.78;6244534;23;20020;-91
2022/11/12 01:16:11;;;;;;;13.52;5.80;;;;;;;9.44;84.01;99559.75;6245513;23;20138;-86
2022/11/12 01:18:58;;;;;;;7.00;5.35;;;;;;;9.21;84.17;99515.13;6243919;23;20016;-91
2022/11/12 01:24:31;;;;;;;11.60;5.80;;;;;;;9.29;84.97;99532.72;6245353;22;20540;-84
2022/11/12 01:27:16;;;;;;;9.98;5.68;;;;;;;9.54;84.81;99566.94;6245439;23;20020;-91
2022/11/12 01:32:48;;;;;;;14.98;6.32;;;;;;;9.26;84.71;99511.50;6245134;23;20020;-90
2022/11/12 01:41:18;;;;;;;;;;;;;;;9.57;84.93;99558.13;6245749;23;20357;-89
2022/11/12 01:44:10;;;;;;;10.18;5.90;;;;;;;9.33;85.00;99528.28;6244271;23;20006;-87
2022/11/12 01:46:58;;;;;;;7.95;4.90;;;;;;;9.53;84.95;99549.75;6244281;23;20016;-90
2022/11/12 01:50:00;;;;;;;14.27;5.45;;;;;;;9.25;85.02;99504.44;6243387;23;20020;-91
2022/11/12 01:52:59;;;;;;;12.70;5.72;;;;;;;9.39;85.16;99533.34;6244424;23;20082;-85
2022/11/12 02:01:39;;;;;;;11.32;5.85;;;;;;;9.36;84.82;99517.56;6245005;23;20024;-86
2022/11/12 02:04:27;;;;;;;11.90;6.18;;;;;;;9.57;84.80;99547.22;6246915;23;20090;-89
2022/11/12 02:15:49;;;;;;;10.63;6.28;;;;;;;9.60;83.97;99519.34;6247235;23;20087;-91
2022/11/12 02:18:34;;;;;;;12.32;6.55;;;;;;;9.53;84.33;99505.28;6224202;23;20020;-91
2022/11/12 02:21:23;;;;;;;13.27;5.95;;;;;;;9.59;84.41;99526.72;6246763;23;20112;-85
2022/11/12 02:24:11;;;;;;;13.50;5.97;;;;;;;9.59;84.80;99523.97;6220646;23;20012;-90
2022/11/12 02:26:56;;;;;;;12.15;6.72;;;;;;;9.49;85.02;99507.00;6224677;23;20016;-89
2022/11/12 02:29:45;;;;;;;15.57;7.32;;;;;;;9.34;86.15;99462.53;6220757;23;20016;-90
2022/11/12 02:32:31;;;;;;;16.80;8.40;;;;;;;9.70;85.45;99507.41;6220813;23;20020;-92
2022/11/12 02:35:16;;;;;;;18.90;7.72;;;;;;;9.51;85.43;99472.84;6224664;23;20535;-89
2022/11/12 02:38:01;;;;;;;17.02;7.65;;;;;;;9.57;85.64;99493.47;6246476;23;20102;-89
2022/11/12 02:43:33;;;;;;;12.35;7.57;;;;;;;9.57;85.75;99482.56;6247366;23;20346;-90
2022/11/12 02:46:18;;;;;;;14.88;7.32;;;;;;;9.69;85.42;99503.06;6253452;23;20079;-86
2022/11/12 02:51:49;;;;;;;13.35;6.68;;;;;;;9.64;85.47;99487.63;6247301;23;20016;-84
2022/11/12 02:54:33;;;;;;;11.63;6.70;;;;;;;9.64;85.57;99474.78;6225225;23;20020;-88
2022/11/12 02:57:18;;;;;;;10.95;6.28;;;;;;;9.39;85.32;99451.50;6220439;23;20012;-91
2022/11/12 03:00:05;;;;;;;11.48;6.97;;;;;;;9.45;85.85;99449.50;6247420;23;20098;-88
2022/11/12 03:02:58;;;;;;;13.55;6.72;;;;;;;9.48;85.73;99454.34;6224770;23;20020;-91
2022/11/12 03:05:43;;;;;;;11.70;6.68;;;;;;;9.76;85.79;99498.03;6246856;23;20016;-90
2022/11/12 03:08:28;;;;;;;11.30;6.22;;;;;;;9.53;85.19;99458.88;6246639;23;20035;-89
2022/11/12 03:11:15;;;;;;;9.23;5.97;;;;;;;9.70;85.41;99488.31;6246812;23;20016;-90
2022/11/12 03:14:01;;;;;;;8.00;4.80;;;;;;;9.37;85.17;99431.06;6224526;23;20016;-89
2022/11/12 03:16:45;;;;;;;14.27;6.40;;;;;;;9.47;85.04;99458.19;6246430;23;20027;-86
2022/11/12 03:22:16;;;;;;;10.60;6.22;;;;;;;9.82;85.05;99481.22;6247349;23;20028;-87
2022/11/12 03:25:01;;;;;;;9.15;5.78;;;;;;;9.48;84.68;99429.78;6208138;23;20020;-88
2022/11/12 03:27:45;;;;;;;11.50;6.53;;;;;;;9.54;84.56;99433.22;6219310;23;20086;-88
2022/11/12 03:30:33;;;;;;;11.88;5.53;;;;;;;9.47;84.38;99422.72;6246531;23;20011;-88
2022/11/12 03:33:18;;;;;;;11.02;6.00;;;;;;;9.76;84.57;99452.41;6246733;23;20015;-89
2022/11/12 03:36:03;;;;;;;15.90;6.72;;;;;;;9.66;84.13;99419.88;6246847;23;20016;-83
2022/11/12 03:38:48;;;;;;;8.63;5.82;;;;;;;9.77;84.52;99434.13;6246473;23;20020;-91
2022/11/12 03:41:32;;;;;;;8.45;5.22;;;;;;;9.66;84.35;99398.03;6246609;23;20069;-90
2022/11/12 03:44:16;;;;;;;9.60;5.45;;;;;;;9.88;84.48;99451.91;6246473;23;20454;-87
2022/11/12 03:47:01;;;;;;;12.75;5.97;;;;;;;9.71;84.45;99418.97;6199026;23;20046;-85
2022/11/12 03:49:46;;;;;;;9.00;6.35;;;;;;;9.60;84.21;99397.34;6198235;23;20074;-87
2022/11/12 03:52:30;;;;;;;9.77;4.90;;;;;;;9.69;84.03;99410.25;6224123;23;20016;-91
2022/11/12 03:55:18;;;;;;;11.52;4.78;;;;;;;9.63;83.81;99399.47;6246486;23;20476;-90
2022/11/12 03:58:02;;;;;;;12.18;5.93;;;;;;;9.96;84.07;99450.38;6223471;23;20044;-87
2022/11/12 04:00:47;;;;;;;6.45;4.75;;;;;;;9.79;83.89;99438.16;6219173;23;20050;-86
2022/11/12 04:03:31;;;;;;;9.07;5.57;;;;;;;9.58;83.99;99399.56;6219413;23;20023;-88
2022/11/12 04:09:19;;;;;;;14.18;6.00;;;;;;;9.98;83.72;99429.84;6246198;23;20039;-88
2022/11/12 04:13:26;;;;;;;12.13;7.22;;;;;;;9.90;83.68;99425.13;6246098;23;20095;-89
2022/11/12 04:15:08;;;;;;;12.15;7.00;;;;;;;9.98;84.26;99432.59;6219841;23;20135;-90
2022/11/12 04:23:59;;;;;;;7.93;4.88;;;;;;;9.75;83.84;99392.66;6246005;23;20012;-84
2022/11/12 04:32:35;;;;;;;8.75;4.82;;;;;;;9.90;83.66;99386.91;6246261;23;20020;-89
2022/11/12 04:35:20;;;;;;;7.03;4.68;;;;;;;9.70;83.18;99351.81;6219295;23;20026;-89
2022/11/12 04:38:05;;;;;;;7.53;4.60;;;;;;;9.85;83.08;99371.41;6245315;23;20043;-89
2022/11/12 04:46:56;;;;;;;7.90;3.90;;;;;;;9.71;82.94;99350.72;6219188;23;20051;-86
2022/11/12 04:49:41;;;;;;;6.65;4.03;;;;;;;9.86;83.20;99374.94;6245516;23;20051;-88
2022/11/12 04:52:27;;;;;;;6.03;3.70;;;;;;;10.08;82.98;99415.97;6218579;23;20102;-86
2022/11/12 04:55:11;;;;;;;6.60;4.10;;;;;;;9.67;83.25;99349.69;6223102;23;20020;-89
2022/11/12 04:57:56;;;;;;;8.60;4.53;;;;;;;10.04;83.56;99395.06;6221183;23;20262;-89
2022/11/12 05:00:40;;;;;;;7.07;4.38;;;;;;;9.91;83.13;99374.84;6245228;23;20046;-87
2022/11/12 05:03:24;;;;;;;5.90;4.07;;;;;;;9.91;83.07;99388.50;6244023;23;20023;-84
2022/11/12 05:09:12;;;;;;;7.07;4.05;;;;;;;9.91;82.59;99352.19;6245214;23;20023;-90
2022/11/12 05:12:06;;;;;;;6.88;3.85;;;;;;;10.03;82.45;99377.03;6244382;23;20024;-85
2022/11/12 05:14:51;;;;;;;9.60;4.95;;;;;;;10.22;82.72;99394.06;6244199;23;20023;-85
2022/11/12 05:17:36;;;;;;;5.43;3.88;;;;;;;10.28;82.28;99397.53;6245878;23;20355;-89
2022/11/12 05:20:21;;;;;;;5.78;4.25;;;;;;;10.15;82.02;99381.97;6244509;23;20054;-90
2022/11/12 05:23:05;;;;;;;7.18;3.70;;;;;;;10.14;82.04;99358.50;6246641;23;20453;-92
2022/11/12 05:25:49;;;;;;;6.20;4.25;;;;;;;10.37;82.02;99389.41;6244591;23;20027;-91
2022/11/12 05:28:34;;;;;;;8.38;4.00;;;;;;;10.18;81.79;99354.84;6244405;23;20066;-82
2022/11/12 05:31:19;;;;;;;8.52;3.75;;;;;;;10.38;81.66;99391.81;6246556;23;20020;-83
2022/11/12 05:36:51;;;;;;;5.95;3.38;;;;;;;10.44;81.38;99389.78;6250608;23;20016;-90
2022/11/12 05:39:36;;;;;;;5.03;3.30;;;;;;;10.22;81.21;99374.16;6246087;23;20051;-89
2022/11/12 05:42:26;;;;;;;6.25;3.33;;;;;;;10.10;81.28;99350.13;6246801;23;20016;-90
2022/11/12 05:45:35;;;;;;;4.60;2.97;;;;;;;10.38;81.49;99400.03;6245909;23;20016;-89
2022/11/12 05:48:20;;;;;;;5.78;3.25;;;;;;;10.31;81.79;99389.53;6245971;23;20016;-86
2022/11/12 05:51:05;;;;;;;5.30;3.10;;;;;;;9.88;81.58;99302.53;6247866;23;20446;-86
2022/11/12 05:53:50;;;;;;;4.28;3.20;;;;;;;10.31;81.32;99369.59;6224681;23;20398;-90
2022/11/12 05:56:38;;;;;;;4.65;3.10;;;;;;;10.41;81.69;99388.47;6224407;23;20346;-89
2022/11/12 05:59:26;;;;;;;6.03;3.75;;;;;;;10.53;82.13;99382.47;6229017;23;20015;-86
2022/11/12 06:02:10;;;;;;;6.47;3.50;;;;;;;10.22;81.22;99324.97;6246969;23;20024;-89
2022/11/12 06:04:55;;;;;;;4.68;3.20;;;;;;;10.10;80.94;99329.06;6245070;23;20020;-90
2022/11/12 06:07:39;;;;;;;4.43;3.08;;;;;;;10.55;81.08;99383.75;6224152;23;20024;-84
2022/11/12 06:13:11;;;;;;;4.28;2.85;;;;;;;10.26;80.83;99332.25;6247120;23;20019;-87
2022/11/12 06:18:40;;;;;;;4.72;2.83;;;;;;;10.56;80.55;99385.38;6247196;23;20023;-86
2022/11/12 06:27:04;;;;;;;6.25;3.10;;;;;;;10.38;80.45;99353.56;6245308;23;20016;-91
2022/11/12 06:29:51;;;;;;;4.88;3.15;;;;;;;10.65;80.44;99377.22;6247705;23;20069;-91
2022/11/12 06:32:35;;;;;;;8.63;2.95;;;;;;;10.45;80.49;99334.00;6246918;23;20103;-86
2022/11/12 06:35:20;;;;;;;7.18;3.45;;;;;;;10.49;80.43;99333.06;6248356;23;20012;-86
2022/11/12 06:38:04;;;;;;;3.63;2.67;;;;;;;10.51;79.97;99314.44;6245655;23;20012;-90
2022/11/12 06:40:49;;;;;;;5.65;3.15;;;;;;;10.53;80.26;99320.41;6245472;23;20331;-85
2022/11/12 06:43:34;;;;;;;3.85;2.58;;;;;;;10.65;80.01;99338.16;6247076;23;20020;-85
2022/11/12 06:46:19;;;;;;;4.10;2.58;;;;;;;10.81;80.41;99344.84;6224309;23;20015;-90
2022/11/12 06:51:50;;;;;;;3.22;2.42;;;;;;;10.62;79.98;99330.56;6245868;23;20016;-85
2022/11/12 06:57:20;;;;;;;6.40;2.60;;;;;;;10.85;79.94;99361.41;6244696;23;20016;-88
2022/11/12 07:00:05;;;;;;;3.78;2.30;;;;;;;10.62;79.80;99323.16;6246265;23;20039;-89
2022/11/12 07:02:49;;;;;;;5.80;2.42;;;;;;;10.58;79.98;99317.53;6223333;23;20450;-84
2022/11/12 07:05:37;;;;;;;6.90;2.42;;;;;;;10.83;79.95;99350.81;6246152;23;20018;-89
2022/11/12 07:08:22;;;;;;;5.00;2.58;;;;;;;10.55;80.11;99282.63;6223851;23;20069;-85
2022/11/12 07:11:30;;;;;;;5.68;2.67;;;;;;;10.94;80.12;99333.00;6245456;23;20028;-89
2022/11/12 07:14:14;;;;;;;6.00;2.55;;;;;;;10.91;80.33;99322.69;6246755;23;20016;-88
2022/11/12 07:17:00;;;;;;;5.68;2.65;;;;;;;10.72;80.65;99294.75;6246862;23;20023;-84
2022/11/12 07:19:45;;;;;;;4.18;2.30;;;;;;;10.64;80.82;99282.66;6244450;23;20082;-91
2022/11/12 07:22:33;;;;;;;3.40;2.42;;;;;;;10.75;80.76;99292.19;6245383;23;20050;-87
2022/11/12 07:25:17;;;;;;;7.28;3.10;;;;;;;10.73;80.56;99271.78;6246151;23;20020;-86
2022/11/12 07:30:46;;;;;;;4.90;2.58;;;;;;;10.96;80.47;99306.16;6246894;23;20020;-90
2022/11/12 07:33:42;;;;;;;5.88;2.42;;;;;;;10.96;80.35;99294.38;6224204;23;20478;-91
2022/11/12 07:36:26;;;;;;;7.15;2.65;;;;;;;10.82;80.35;99246.06;6243604;23;20111;-89
2022/11/12 07:39:12;;;;;;;4.55;2.55;;;;;;;10.74;80.20;99243.31;6245135;23;20023;-90
2022/11/12 07:42:05;;;;;;;4.47;2.47;;;;;;;11.11;80.25;99265.81;6221812;23;20446;-86
2022/11/12 07:45:15;;;;;;;5.40;2.67;;;;;;;11.09;79.73;99246.94;6225359;23;20064;-87
2022/11/12 07:48:00;;;;;;;7.38;2.53;;;;;;;10.95;79.36;99227.94;6194860;23;20107;-88
2022/11/12 07:50:47;;;;;;;5.13;3.10;;;;;;;11.13;79.61;99253.44;6240872;23;20027;-87
2022/11/12 07:56:38;;;;;;;5.72;2.45;;;;;;;10.95;80.04;99227.94;6150459;23;20025;-87
2022/11/12 07:59:23;;;;;;;4.53;2.63;;;;;;;11.01;79.90;99245.81;6154498;23;20025;-86
2022/11/12 08:02:09;;;;;;;4.90;3.00;;;;;;;11.01;79.93;99262.22;6180130;23;20028;-89
2022/11/12 08:04:53;;;;;;;8.95;3.10;;;;;;;11.11;79.56;99257.59;6155615;23;20025;-87
2022/11/12 08:07:38;;;;;;;4.28;2.42;;;;;;;10.97;79.52;99227.63;6155322;23;20048;-87
2022/11/12 08:10:27;;;;;;;3.53;2.08;;;;;;;11.10;79.32;99239.56;6160450;23;20021;-86
2022/11/12 08:13:11;;;;;;;3.65;2.60;;;;;;;11.13;79.20;99231.53;6179307;23;20049;-87
2022/11/12 08:15:57;;;;;;;6.30;2.95;;;;;;;11.11;79.36;99227.50;6180093;23;20009;-86
2022/11/12 08:18:43;;;;;;;4.97;2.58;;;;;;;11.26;79.15;99248.94;6154205;23;20410;-88
2022/11/12 08:21:28;;;;;;;8.30;2.38;;;;;;;10.95;79.12;99188.84;6179822;23;20027;-86
2022/11/12 08:24:13;;;;;;;3.35;2.15;;;;;;;11.14;79.28;99219.47;6159272;23;20106;-86
2022/11/12 08:26:58;;;;;;;5.85;2.38;;;;;;;10.84;79.34;99161.00;6154724;23;20021;-85
2022/11/12 08:29:43;;;;;;;5.00;2.30;;;;;;;11.17;79.24;99202.41;6180691;23;20071;-87
2022/11/12 08:32:31;;;;;;;4.95;2.30;;;;;;;11.05;79.13;99181.13;6176330;23;20475;-90
2022/11/12 08:35:16;;;;;;;2.67;1.80;;;;;;;11.26;79.16;99207.91;6244589;23;20054;-90
2022/11/12 08:38:06;;;;;;;6.70;2.03;;;;;;;11.34;79.42;99189.88;6243313;23;20324;-87
2022/11/12 08:40:51;;;;;;;6.82;2.13;;;;;;;11.22;79.44;99182.28;6243593;23;20015;-90
2022/11/12 08:43:37;;;;;;;5.10;2.25;;;;;;;10.97;79.55;99137.38;6243064;23;20016;-88
2022/11/12 08:46:21;;;;;;;;;;;;;;;11.25;79.66;99173.44;6243527;23;20092;-87
2022/11/12 08:49:06;;;;;;;5.82;1.90;;;;;;;10.98;79.38;99117.91;6242679;23;19919;-84
2022/11/12 08:51:54;;;;;;;3.17;1.92;;;;;;;11.30;79.57;99145.94;6219949;23;20012;-87
2022/11/12 08:54:38;;;;;;;4.03;1.95;;;;;;;11.38;80.10;99150.59;6240605;23;20089;-82
2022/11/12 08:57:23;;;;;;;3.88;2.20;;;;;;;11.31;79.45;99144.00;6242092;23;20016;-85
2022/11/12 09:00:12;;;;;;;4.28;2.00;;;;;;;11.14;78.96;99117.44;6193602;23;20024;-83
2022/11/12 09:03:01;;;;;;;3.83;2.00;;;;;;;11.26;78.99;99139.50;6242480;23;20047;-83
2022/11/12 09:05:48;;;;;;;4.15;2.05;;;;;;;11.43;79.26;99138.69;6216128;23;20346;-82
2022/11/12 09:08:33;;;;;;;;;;;;;;;11.44;79.38;99141.09;6220318;23;20030;-83
2022/11/12 09:11:19;;;;;;;3.45;2.03;;;;;;;11.14;79.29;99095.56;6220137;23;19916;-82
2022/11/12 09:14:03;;;;;;;5.30;2.10;;;;;;;11.22;79.22;99106.47;6242325;23;20016;-89
2022/11/12 09:16:51;;;;;;;5.05;1.90;;;;;;;11.41;79.51;99106.16;6220441;23;20027;-87
2022/11/12 09:19:36;;;;;;;3.25;1.88;;;;;;;11.21;79.17;99079.44;6215407;23;20016;-90
2022/11/12 09:22:20;;;;;;;3.90;1.98;;;;;;;11.07;79.04;99046.00;6243422;23;20111;-87
2022/11/12 09:25:05;;;;;;;4.60;2.20;;;;;;;10.94;79.13;99043.09;6195072;23;20393;-89
2022/11/12 09:27:51;;;;;;;3.17;1.90;;;;;;;11.13;79.06;99061.13;6243659;23;20012;-90
2022/11/12 09:30:37;;;;;;;6.00;2.15;;;;;;;11.12;79.23;99059.50;6243067;23;20087;-92
2022/11/12 09:33:24;;;;;;;6.18;3.28;;;;;;;11.22;79.66;99067.38;6242076;23;20064;-83
2022/11/12 09:36:09;;;;;;;5.50;3.20;;;;;;;11.24;79.42;99065.13;6193229;23;20047;-83
2022/11/12 09:38:55;;;;;;;6.10;3.00;;;;;;;11.24;79.76;99046.78;6214555;23;20070;-84
2022/11/12 09:41:41;;;;;;;5.57;2.67;;;;;;;11.33;79.82;99051.44;6239211;23;20465;-87
2022/11/12 09:44:26;;;;;;;6.95;2.95;;;;;;;11.11;80.15;99011.38;6241377;23;20023;-85
2022/11/12 09:47:36;;;;;;;3.63;2.58;;;;;;;11.21;79.90;99022.00;6242862;23;20023;-87
2022/11/12 09:50:25;;;;;;;3.25;2.40;;;;;;;11.36;80.45;99042.59;6218335;23;20020;-85
2022/11/12 09:53:27;;;;;;;4.30;2.40;;;;;;;11.24;80.97;99021.34;6222949;23;20012;-88
2022/11/12 09:56:13;;;;;;;7.05;2.78;;;;;;;11.23;81.14;99036.97;6241474;23;20070;-85
2022/11/12 09:58:58;;;;;;;7.47;2.28;;;;;;;11.28;81.02;99009.41;6241340;23;20476;-81
2022/11/12 10:01:49;;;;;;;7.13;2.60;;;;;;;11.27;81.25;98999.63;6219201;23;20031;-83
2022/11/12 10:04:38;;;;;;;4.80;2.00;;;;;;;11.19;81.18;99005.09;6193779;23;20430;-88
2022/11/12 10:07:34;;;;;;;5.25;2.58;;;;;;;11.26;81.54;99005.41;6241298;23;20015;-82
2022/11/12 10:10:34;;;;;;;4.13;2.70;;;;;;;11.16;81.28;98962.78;6241784;23;20016;-84
2022/11/12 10:13:45;;;;;;;3.70;2.10;;;;;;;11.14;81.23;98956.84;6241916;23;20016;-86
2022/11/12 10:16:51;;;;;;;4.60;2.17;;;;;;;11.13;81.26;98949.75;6243190;23;20016;-85
2022/11/12 10:19:38;;;;;;;3.35;2.10;;;;;;;11.36;81.20;98974.16;6220049;23;20024;-90
2022/11/12 10:22:59;;;;;;;2.83;1.83;;;;;;;11.31;80.96;98963.38;6195002;23;20107;-83
2022/11/12 10:25:46;;;;;;;3.55;2.20;;;;;;;11.29;80.74;98948.09;6244544;23;20426;-88
2022/11/12 10:28:43;;;;;;;4.85;2.65;;;;;;;11.32;80.49;98940.38;6244897;23;20065;-91
2022/11/12 10:31:28;;;;;;;3.95;2.40;;;;;;;11.34;80.21;98954.53;6243087;23;20024;-89
2022/11/12 10:34:13;;;;;;;5.32;2.60;;;;;;;11.40;80.18;98970.44;6244550;23;20012;-88
2022/11/12 10:37:05;;;;;;;3.25;2.00;;;;;;;11.34;80.35;98952.59;6243848;23;20016;-87
2022/11/12 10:39:50;;;;;;;5.53;2.17;;;;;;;11.38;79.93;98975.44;6245061;23;20012;-87
2022/11/12 10:42:53;;;;;;;7.30;2.13;;;;;;;11.31;80.63;98958.72;6242129;23;20020;-89
2022/11/12 10:45:38;;;;;;;3.92;2.20;;;;;;;11.30;80.95;98946.19;6217776;23;20023;-87
2022/11/12 10:48:32;;;;;;;3.40;2.00;;;;;;;11.27;81.46;98947.63;6244968;23;20020;-89
2022/11/12 10:51:21;;;;;;;4.05;2.13;;;;;;;11.35;81.89;98970.59;6243985;23;20616;-89
2022/11/12 10:54:34;;;;;;;8.65;1.80;;;;;;;11.36;82.22;98963.22;6217524;23;20039;-84
2022/11/12 10:57:19;;;;;;;6.97;2.20;;;;;;;11.37;82.26;98959.34;6244293;23;20016;-84
2022/11/12 11:00:14;;;;;;;6.25;2.40;;;;;;;11.32;82.35;98951.31;6243454;23;20098;-84
2022/11/12 11:03:04;;;;;;;2.95;1.55;;;;;;;11.03;82.40;98906.34;6216153;23;20527;-88
2022/11/12 11:06:01;;;;;;;2.80;1.80;;;;;;;11.32;82.34;98938.41;6244539;23;20020;-88
2022/11/12 11:08:49;;;;;;;2.38;1.70;;;;;;;11.14;82.38;98923.19;6259617;23;20016;-86
2022/11/12 11:11:34;;;;;;;3.28;2.00;;;;;;;11.17;82.43;98914.34;6246786;23;20335;-89
2022/11/12 11:14:21;;;;;;;2.92;1.73;;;;;;;11.27;82.83;98924.94;6244887;23;20034;-87
2022/11/12 11:17:17;;;;;;;4.75;2.10;;;;;;;11.24;83.66;98929.13;6247624;23;20020;-84
2022/11/12 11:20:04;;;;;;;3.90;2.30;;;;;;;11.07;83.74;98885.41;6245226;23;20019;-91
2022/11/12 11:23:29;;;;;;;9.27;3.28;;;;;;;11.18;84.18;98894.06;6244947;23;20020;-87
2022/11/12 11:26:32;;;;;;;8.13;3.00;;;;;;;11.11;84.68;98886.34;6218935;23;20094;-89
2022/11/12 11:29:41;;;;;;;4.90;2.30;;;;;;;10.97;84.54;98859.22;6218097;23;20016;-89
2022/11/12 11:33:00;;;;;;;3.08;2.10;;;;;;;11.15;84.77;98859.94;6216931;23;20020;-84
2022/11/12 11:35:52;;;;;;;3.95;2.38;;;;;;;10.98;84.91;98847.13;6218066;23;20020;-89
2022/11/12 11:39:03;;;;;;;3.05;1.88;;;;;;;11.02;85.07;98852.75;6221801;23;20020;-90
2022/11/12 11:42:16;;;;;;;3.88;2.30;;;;;;;10.78;85.40;98807.63;6184353;23;20158;-84
2022/11/12 11:45:46;;;;;;;4.30;2.25;;;;;;;11.03;85.56;98854.38;6243866;23;20044;-83
2022/11/12 11:48:55;;;;;;;2.97;2.00;;;;;;;11.12;85.30;98822.31;6187225;23;20449;-89
2022/11/12 11:52:01;;;;;;;3.75;1.88;;;;;;;11.17;84.99;98811.19;6218730;23;20446;-91
2022/11/12 11:54:48;;;;;;;25.77;4.95;;;;;;;11.32;84.58;98825.44;6247081;23;20066;-90
2022/11/12 11:57:59;;;;;;;29.85;6.80;;;;;;;11.29;85.25;98810.47;6247467;23;20042;-90
2022/11/12 12:01:15;;;;;;;107.43;17.70;;;;;;;11.28;86.09;98808.88;6246798;22;20016;-94
2022/11/12 12:04:37;;;;;;;35.45;7.85;;;;;;;11.23;86.30;98784.47;6219849;23;20016;-90
2022/11/12 12:07:50;;;;;;;8.88;3.38;;;;;;;11.24;86.83;98783.31;6201045;23;20044;-91
2022/11/12 12:10:55;;;;;;;6.28;2.22;;;;;;;10.98;85.76;98694.00;6222948;23;20042;-82
2022/11/12 12:13:59;;;;;;;3.25;2.00;;;;;;;11.38;85.09;98772.13;6225157;23;20012;-93
2022/11/12 12:17:20;;;;;;;4.13;1.90;;;;;;;11.65;84.17;98779.03;6222487;23;20016;-85
2022/11/12 12:20:32;;;;;;;3.63;2.15;;;;;;;11.95;83.67;98768.84;6244656;23;20020;-86
2022/11/12 12:24:00;;;;;;;5.10;3.03;;;;;;;12.01;81.41;98731.88;6197423;23;20019;-90
2022/11/12 12:26:49;;;;;;;5.03;2.00;;;;;;;11.87;81.89;98723.97;6106292;23;20077;-87
2022/11/12 12:29:40;;;;;;;3.28;2.20;;;;;;;11.90;81.66;98708.81;6102968;23;20014;-89
2022/11/12 12:32:31;;;;;;;3.72;1.80;;;;;;;11.97;81.32;98701.63;6212529;23;20020;-85
2022/11/12 12:36:04;;;;;;;3.90;2.40;;;;;;;11.98;81.61;98713.38;6197763;23;20019;-87
2022/11/12 12:38:54;;;;;;;3.88;1.90;;;;;;;12.14;81.62;98719.03;6097958;23;20021;-88
2022/11/12 12:41:58;;;;;;;3.17;1.90;;;;;;;11.92;81.90;98706.50;6097711;23;20025;-87
2022/11/12 12:45:04;;;;;;;3.75;2.00;;;;;;;12.02;81.03;98678.72;6097396;23;20045;-87
2022/11/12 12:47:51;;;;;;;4.25;1.80;;;;;;;12.09;80.78;98673.47;6097824;23;20617;-86
2022/11/12 12:54:34;;;;;;;3.97;2.10;;;;;;;12.57;79.18;98688.41;6098209;23;19943;-87
2022/11/12 12:57:38;;;;;;;8.38;3.30;;;;;;;12.42;80.66;98676.19;6121541;23;20029;-88
2022/11/12 13:00:39;;;;;;;3.83;2.30;;;;;;;12.59;79.48;98645.00;6097256;23;20024;-86
2022/11/12 13:03:42;;;;;;;7.53;2.33;;;;;;;12.61;78.98;98653.66;6122311;23;20096;-87
2022/11/12 13:06:28;;;;;;;5.22;1.50;;;;;;;12.70;78.45;98651.63;6101861;23;20018;-88
2022/11/12 13:09:23;;;;;;;3.35;1.60;;;;;;;12.63;78.97;98631.41;6121348;23;20027;-84
2022/11/12 13:15:13;;;;;;;6.22;1.77;;;;;;;12.83;77.25;98607.72;6187606;23;20466;-88
2022/11/12 13:18:09;;;;;;;4.97;2.30;;;;;;;12.59;78.09;98594.84;6194816;23;20023;-87
2022/11/12 13:21:25;;;;;;;4.00;1.73;;;;;;;12.61;77.59;98595.28;6214780;23;20017;-89
2022/11/12 13:24:10;;;;;;;6.15;2.95;;;;;;;12.74;78.49;98656.41;6167082;23;20016;-87
2022/11/12 13:26:57;;;;;;;6.95;2.67;;;;;;;12.52;79.61;98622.84;6214559;23;20021;-87
2022/11/12 13:29:44;;;;;;;2.63;1.50;;;;;;;12.36;80.26;98617.25;6191529;23;20008;-81
2022/11/12 13:32:41;;;;;;;3.08;1.88;;;;;;;12.39;80.81;98632.22;6187205;23;20327;-83
2022/11/12 13:35:34;;;;;;;3.08;1.90;;;;;;;12.34;81.39;98635.16;6187472;23;20067;-88
2022/11/12 13:38:19;;;;;;;2.35;1.42;;;;;;;12.27;81.48;98602.84;6214862;23;20026;-83
2022/11/12 13:41:15;;;;;;;2.72;1.67;;;;;;;12.32;81.77;98607.31;6214268;23;20375;-90
2022/11/12 13:44:05;;;;;;;2.53;1.45;;;;;;;12.31;81.88;98644.84;6224004;23;20017;-83
2022/11/12 13:46:51;;;;;;;5.18;1.90;;;;;;;12.22;82.57;98617.56;6188604;23;20020;-90
2022/11/12 13:49:36;;;;;;;3.13;1.65;;;;;;;11.88;82.55;98560.44;6192130;23;20151;-86
2022/11/12 13:52:47;;;;;;;2.08;1.55;;;;;;;12.52;81.22;98628.31;6214817;23;20027;-86
2022/11/12 13:55:32;;;;;;;6.32;2.00;;;;;;;12.32;81.77;98594.41;6213828;23;20040;-83
2022/11/12 13:58:28;;;;;;;4.30;2.10;;;;;;;12.15;81.97;98592.69;6221774;23;20020;-83
2022/11/12 14:01:13;;;;;;;;;;;;;;;12.34;82.13;98621.44;6244446;23;20096;-84
2022/11/12 14:03:57;;;;;;;4.45;3.42;;;;;;;12.32;82.58;98634.72;6243087;23;19915;-81
2022/11/12 14:07:00;;;;;;;2.42;1.77;;;;;;;12.11;82.43;98596.41;6220758;23;20016;-85
2022/11/12 14:09:54;;;;;;;6.22;1.85;;;;;;;12.38;82.57;98644.28;6194931;23;20477;-83
2022/11/12 14:13:04;;;;;;;2.97;1.92;;;;;;;12.53;81.78;98640.09;6215518;23;20016;-82
2022/11/12 14:16:21;;;;;;;2.75;1.60;;;;;;;12.56;81.37;98631.19;6218778;23;20094;-84
2022/11/12 14:19:37;;;;;;;2.88;1.88;;;;;;;12.52;82.10;98622.06;6214928;23;20016;-84
2022/11/12 14:22:23;;;;;;;4.05;2.38;;;;;;;12.11;82.44;98566.28;6220343;23;20024;-85
2022/11/12 14:25:18;;;;;;;5.13;2.13;;;;;;;12.59;81.90;98636.78;6242638;23;20512;-85
2022/11/12 14:28:04;;;;;;;2.78;1.40;;;;;;;12.51;81.62;98609.47;6214964;23;20579;-84
2022/11/12 14:30:48;;;;;;;3.75;1.70;;;;;;;12.42;81.89;98602.16;6214482;23;20454;-83
2022/11/12 14:33:34;;;;;;;3.22;1.50;;;;;;;12.35;81.70;98612.91;6241880;23;20019;-82
2022/11/12 14:36:26;;;;;;;5.60;1.98;;;;;;;12.53;82.02;98627.19;6219432;23;20020;-84
2022/11/12 14:39:11;;;;;;;3.97;1.40;;;;;;;12.25;81.29;98561.28;6241176;23;20016;-82
2022/11/12 14:41:58;;;;;;;3.58;1.60;;;;;;;12.52;81.38;98598.16;6240862;23;20020;-85
2022/11/12 14:44:42;;;;;;;2.60;1.30;;;;;;;12.49;81.70;98595.31;6214446;23;20020;-86
2022/11/12 14:47:30;;;;;;;1.88;1.33;;;;;;;12.77;81.59;98651.03;6240392;23;20016;-86
2022/11/12 14:50:30;;;;;;;1.58;1.30;;;;;;;12.51;81.47;98606.72;6192766;23;20020;-85
2022/11/12 14:53:20;;;;;;;4.25;1.67;;;;;;;12.54;81.68;98612.31;6193560;23;20642;-84
2022/11/12 14:56:09;;;;;;;6.00;2.55;;;;;;;12.54;81.43;98612.31;6213805;23;20122;-87
2022/11/12 14:58:54;;;;;;;5.40;1.63;;;;;;;12.48;80.85;98596.44;6224837;23;20027;-87